Autoridad de Aeronautica Civil de Panamá***
**


metar




ESTACIONES DESCRIPCION
MPTO (M) 180100Z 06003KT 9999 TS SCT016CB BKN080 25/23 Q1008 RERA RWY DAMP NOSIG RMK TS/PCPN DSNT SE CB N/E=  
MPBO (M)  
MPCH (M)  
MPSA (M) 172300Z 00000KT 9999 SCT016 BKN080 26/24 Q1008=  
MPCE (M) 172300Z 04010KT 9000 VCSH SCT012TCU 29/// Q1007 RMK PCPN/TCU S=  
MPPN (M) 172300Z 00000KT 9999 SCT015 BKN090 26/25 Q//// RWY DAMP=  
MPSM (M) 180000Z 30002KT 9999 FEW030 28/24 Q1008  
MPJE (M) FUERA DE SERVICIO  
MPPA (M)  
MPMG (M) 180100Z 36004KT 330V040 9999 SCT016CB SCT080 27/25 Q1009 TEMPO 8000 TSRA RMK LTNG N-E  
MPDA (M) 180100Z 24006KT 9999 TS SCT016CB BKN100 27/24 Q1009 RMK TS NE-SE-S  
MPVR (M)  
MPWN (M) FUERA DE SERVICIO  
MPOA (M) FUERA DE SERVICIO  
MPMF (M) FUERA DE SERVICIO  
MPEJ (M) 172300Z 29004KT 9000 -RA FEW012TCU SCT15 27//// Q/// RWY WET RMK TCU NE=  


 

 

  CLIMATICA

MPTO

17 DE JUNIO 2021

 

PCPN (mm)

T° MAX

T° MIN

VIENTO MAX (KT)

HORA

VIENTO PREDOM (KT)

0.40

30.9

24.0

25008KT

2200Z

VRB05 KT

 

CLIMÁTICAS

MPMG

17 JUNIO  2021

PCPN (mm)

T° MAX

T° MIN

VIENTO MAX (KT)

HORA

VIENTO PREDOM (KT)

0.0

30.7

25.0

32008KT

2200Z

VRB

 



Contador: 46589